Time;durP1;ratioP1;P1;durP2;ratioP2;P2;SDS_P1;SDS_P2;PMS_P1;PMS_P2;Temp;Humidity;BMP_temperature;BMP_pressure;BME280_temperature;BME280_humidity;BME280_pressure;Samples;Min_cycle;Max_cycle;Signal;HPM_P1;HPM_P2
2023/12/29 00:02:24;;;;;;;14.13;13.63;;;10.80;99.90;;;;;;5121433;27;20194;-60
2023/12/29 00:04:51;;;;;;;14.90;14.40;;;10.90;99.90;;;;;;5108575;28;20306;-61
2023/12/29 00:07:18;;;;;;;14.07;13.57;;;10.80;99.90;;;;;;5120286;27;20216;-61
2023/12/29 00:09:45;;;;;;;14.40;13.90;;;10.90;99.90;;;;;;5121410;27;20210;-61
2023/12/29 00:12:12;;;;;;;15.53;15.03;;;10.90;99.90;;;;;;5122115;27;20205;-60
2023/12/29 00:14:40;;;;;;;14.93;14.43;;;10.90;99.90;;;;;;5117908;27;20203;-61
2023/12/29 00:17:08;;;;;;;15.00;14.50;;;10.90;99.90;;;;;;5117456;27;20301;-62
2023/12/29 00:19:35;;;;;;;15.03;14.53;;;10.90;99.90;;;;;;5120444;27;20197;-62
2023/12/29 00:22:02;;;;;;;16.07;15.50;;;11.00;99.90;;;;;;5118318;27;20198;-62
2023/12/29 00:24:31;;;;;;;14.63;14.13;;;10.90;99.90;;;;;;5114105;27;20340;-60
2023/12/29 00:26:57;;;;;;;16.03;15.50;;;11.00;99.90;;;;;;5123258;27;20198;-61
2023/12/29 00:29:24;;;;;;;16.00;15.50;;;11.10;99.90;;;;;;5119248;27;20612;-62
2023/12/29 00:31:51;;;;;;;16.40;15.80;;;11.00;99.90;;;;;;5120364;27;20235;-61
2023/12/29 00:34:19;;;;;;;16.13;15.53;;;11.00;99.90;;;;;;5125688;27;20198;-62
2023/12/29 00:36:46;;;;;;;15.37;14.87;;;11.00;99.90;;;;;;5124142;27;20270;-62
2023/12/29 00:39:12;;;;;;;14.73;14.23;;;10.90;99.90;;;;;;5125541;27;20212;-62
2023/12/29 00:41:41;;;;;;;15.70;15.20;;;10.90;99.90;;;;;;5116383;27;20223;-61
2023/12/29 00:44:08;;;;;;;14.00;13.50;;;10.90;99.90;;;;;;5114346;27;20226;-63
2023/12/29 00:46:35;;;;;;;15.27;14.77;;;10.90;99.90;;;;;;5108154;27;20255;-62
2023/12/29 00:49:02;;;;;;;14.00;13.50;;;11.00;99.90;;;;;;5114139;27;20197;-60
2023/12/29 00:51:30;;;;;;;12.37;11.97;;;11.20;99.90;;;;;;5115444;27;20245;-62
2023/12/29 00:53:56;;;;;;;12.70;12.30;;;11.00;99.90;;;;;;5116362;27;20206;-62
2023/12/29 00:56:23;;;;;;;12.83;12.43;;;11.10;99.90;;;;;;5108195;28;20571;-59
2023/12/29 00:58:50;;;;;;;13.07;12.67;;;11.20;99.90;;;;;;5122806;27;20829;-61
2023/12/29 01:01:17;;;;;;;12.63;12.23;;;11.20;99.90;;;;;;5121176;27;20225;-60
2023/12/29 01:03:43;;;;;;;14.00;13.50;;;11.40;99.90;;;;;;5115976;27;20201;-60
2023/12/29 01:06:10;;;;;;;13.73;13.23;;;11.40;99.90;;;;;;5111907;27;20288;-61
2023/12/29 01:08:38;;;;;;;13.10;12.60;;;11.50;99.90;;;;;;5116376;28;20648;-62
2023/12/29 01:11:05;;;;;;;13.33;12.87;;;11.50;99.90;;;;;;5119253;27;20221;-60
2023/12/29 01:13:32;;;;;;;12.47;12.07;;;11.60;99.90;;;;;;5110483;28;20232;-61
2023/12/29 01:15:58;;;;;;;13.17;12.67;;;11.60;99.90;;;;;;5108526;27;20198;-60
2023/12/29 01:18:25;;;;;;;12.80;12.40;;;11.60;99.90;;;;;;5114073;27;20563;-59
2023/12/29 01:20:52;;;;;;;13.57;13.10;;;11.60;99.90;;;;;;5112552;27;20225;-61
2023/12/29 01:23:19;;;;;;;14.13;13.63;;;11.60;99.90;;;;;;5124064;28;20201;-61
2023/12/29 01:25:47;;;;;;;13.63;13.13;;;11.70;99.90;;;;;;5122590;28;20232;-61
2023/12/29 01:28:13;;;;;;;14.77;14.27;;;11.60;99.90;;;;;;5116735;28;20198;-60
2023/12/29 01:30:40;;;;;;;13.40;12.90;;;11.60;99.90;;;;;;5112203;27;20245;-60
2023/12/29 01:33:07;;;;;;;14.07;13.57;;;11.40;99.90;;;;;;5124223;27;20611;-61
2023/12/29 01:35:33;;;;;;;13.53;13.03;;;11.50;99.90;;;;;;5112881;27;20200;-61
2023/12/29 01:38:00;;;;;;;14.43;13.93;;;11.50;99.90;;;;;;5116291;28;20201;-61
2023/12/29 01:40:27;;;;;;;13.48;13.05;;;11.70;99.90;;;;;;5112568;28;20246;-61
2023/12/29 01:42:55;;;;;;;13.30;12.80;;;11.70;99.90;;;;;;5118354;27;20655;-60
2023/12/29 01:45:23;;;;;;;14.53;14.03;;;11.80;99.90;;;;;;5116018;28;20217;-59
2023/12/29 01:47:51;;;;;;;13.90;13.40;;;11.80;99.90;;;;;;5119425;27;20205;-60
2023/12/29 01:50:20;;;;;;;13.63;13.13;;;11.80;99.90;;;;;;5111462;28;20222;-60
2023/12/29 01:52:48;;;;;;;12.70;12.30;;;11.90;99.90;;;;;;5111228;28;20431;-60
2023/12/29 01:55:20;;;;;;;13.03;12.60;;;11.90;99.90;;;;;;5122154;28;20281;-60
2023/12/29 01:57:49;;;;;;;13.60;13.10;;;11.90;99.90;;;;;;5109904;27;20202;-61
2023/12/29 02:00:18;;;;;;;12.90;12.50;;;11.90;99.90;;;;;;5123363;28;20217;-61
2023/12/29 02:02:47;;;;;;;13.07;12.67;;;11.90;99.90;;;;;;5108163;28;20197;-61
2023/12/29 02:05:14;;;;;;;13.23;12.80;;;12.00;99.90;;;;;;5110938;28;20214;-60
2023/12/29 02:07:41;;;;;;;12.70;12.30;;;12.00;99.90;;;;;;5108094;28;20231;-60
2023/12/29 02:10:09;;;;;;;12.90;12.50;;;12.00;99.90;;;;;;5105235;28;20229;-59
2023/12/29 02:12:36;;;;;;;12.73;12.33;;;12.00;99.90;;;;;;5110081;28;20288;-60
2023/12/29 02:15:04;;;;;;;12.50;12.10;;;11.90;99.90;;;;;;5110802;28;20225;-61
2023/12/29 02:17:36;;;;;;;12.73;12.33;;;11.90;99.90;;;;;;5104263;28;20633;-60
2023/12/29 02:20:05;;;;;;;12.07;11.67;;;12.00;99.90;;;;;;5095592;28;20222;-60
2023/12/29 02:22:31;;;;;;;12.50;12.10;;;12.00;99.90;;;;;;5107638;28;20613;-61
2023/12/29 02:24:59;;;;;;;12.23;11.83;;;12.00;99.90;;;;;;5102417;28;20230;-61
2023/12/29 02:27:35;;;;;;;12.00;11.60;;;12.10;99.90;;;;;;5110501;28;20213;-62
2023/12/29 02:30:11;;;;;;;12.03;11.63;;;12.00;99.90;;;;;;5111532;28;20229;-62
2023/12/29 02:32:40;;;;;;;11.90;11.50;;;12.00;99.90;;;;;;5109802;28;20189;-62
2023/12/29 02:35:10;;;;;;;12.17;11.77;;;12.00;99.90;;;;;;5111499;28;20198;-62
2023/12/29 02:37:38;;;;;;;12.00;11.60;;;12.00;99.90;;;;;;5111347;28;20649;-61
2023/12/29 02:40:08;;;;;;;11.93;11.53;;;12.00;99.90;;;;;;5114926;28;20214;-62
2023/12/29 02:42:35;;;;;;;12.13;11.73;;;12.00;99.90;;;;;;5109396;28;20684;-60
2023/12/29 02:45:01;;;;;;;11.90;11.50;;;12.00;99.90;;;;;;5110734;28;20225;-61
2023/12/29 02:47:28;;;;;;;11.70;11.30;;;12.00;99.90;;;;;;5114167;28;20228;-60
2023/12/29 02:49:55;;;;;;;12.47;12.07;;;12.00;99.90;;;;;;5113494;28;20228;-59
2023/12/29 02:52:22;;;;;;;12.20;11.80;;;11.90;99.90;;;;;;5111743;28;20275;-61
2023/12/29 02:54:49;;;;;;;12.40;12.00;;;11.90;99.90;;;;;;5111708;27;20213;-62
2023/12/29 02:57:17;;;;;;;11.93;11.53;;;11.90;99.90;;;;;;5109598;28;20210;-62
2023/12/29 02:59:43;;;;;;;12.00;11.50;;;12.00;99.90;;;;;;5113545;28;20208;-60
2023/12/29 03:02:10;;;;;;;11.97;11.57;;;11.90;99.90;;;;;;5118789;28;20202;-61
2023/12/29 03:04:37;;;;;;;12.10;11.63;;;11.90;99.90;;;;;;5116851;28;20293;-61
2023/12/29 03:07:04;;;;;;;12.03;11.63;;;11.90;99.90;;;;;;5113983;28;20206;-62
2023/12/29 03:09:30;;;;;;;12.33;11.93;;;11.90;99.90;;;;;;5113644;28;20206;-61
2023/12/29 03:11:57;;;;;;;12.07;11.67;;;11.90;99.90;;;;;;5113412;27;20225;-60
2023/12/29 03:14:25;;;;;;;12.10;11.70;;;11.90;99.90;;;;;;5113140;28;20198;-60
2023/12/29 03:16:52;;;;;;;12.23;11.83;;;11.90;99.90;;;;;;5110880;28;20210;-61
2023/12/29 03:19:20;;;;;;;12.17;11.77;;;11.80;99.90;;;;;;5105478;28;20206;-61
2023/12/29 03:21:46;;;;;;;12.80;12.40;;;11.80;99.90;;;;;;5109196;27;20321;-60
2023/12/29 03:24:13;;;;;;;12.70;12.30;;;11.80;99.90;;;;;;5109815;28;20657;-61
2023/12/29 03:26:40;;;;;;;12.30;11.90;;;11.80;99.90;;;;;;5112883;27;20222;-62
2023/12/29 03:29:07;;;;;;;12.23;11.83;;;11.90;99.90;;;;;;5107924;28;20205;-60
2023/12/29 03:31:35;;;;;;;12.70;12.30;;;11.90;99.90;;;;;;5108527;28;20225;-61
2023/12/29 03:34:02;;;;;;;12.47;12.07;;;11.90;99.90;;;;;;5108876;28;20202;-60
2023/12/29 03:36:29;;;;;;;11.80;11.40;;;11.90;99.90;;;;;;5112630;28;20581;-60
2023/12/29 03:38:55;;;;;;;12.53;12.13;;;11.90;99.90;;;;;;5105560;28;20198;-61
2023/12/29 03:41:22;;;;;;;12.77;12.37;;;11.90;99.90;;;;;;5110398;28;20618;-60
2023/12/29 03:43:49;;;;;;;12.43;12.03;;;11.90;99.90;;;;;;5109045;28;20217;-61
2023/12/29 03:46:19;;;;;;;12.80;12.37;;;11.80;99.90;;;;;;5111791;28;20241;-60
2023/12/29 03:48:48;;;;;;;13.10;12.67;;;11.80;99.90;;;;;;5108585;28;20202;-62
2023/12/29 03:51:15;;;;;;;12.90;12.40;;;11.80;99.90;;;;;;5108663;28;20237;-59
2023/12/29 03:53:42;;;;;;;12.53;12.13;;;11.80;99.90;;;;;;5115203;28;20209;-62
2023/12/29 03:56:10;;;;;;;12.73;12.27;;;11.80;99.90;;;;;;5121835;28;20211;-61
2023/12/29 03:58:37;;;;;;;13.00;12.57;;;11.80;99.90;;;;;;5131196;28;20261;-61
2023/12/29 04:01:03;;;;;;;12.53;12.13;;;11.70;99.90;;;;;;5130026;28;20234;-63
2023/12/29 04:03:30;;;;;;;12.30;11.90;;;11.70;99.90;;;;;;5129475;28;20190;-61
2023/12/29 04:05:58;;;;;;;13.23;12.73;;;11.80;99.90;;;;;;5127594;28;20214;-60
2023/12/29 04:08:25;;;;;;;12.73;12.33;;;11.80;99.90;;;;;;5120914;28;20201;-62
2023/12/29 04:10:52;;;;;;;12.93;12.50;;;11.80;99.90;;;;;;5114695;28;20236;-60
2023/12/29 04:13:18;;;;;;;13.03;12.63;;;11.80;99.90;;;;;;5111142;28;20205;-61
2023/12/29 04:15:45;;;;;;;12.43;12.03;;;11.80;99.90;;;;;;5111281;28;20202;-61
2023/12/29 04:18:12;;;;;;;12.57;12.17;;;11.80;99.90;;;;;;5106637;28;20587;-60
2023/12/29 04:20:38;;;;;;;12.17;11.77;;;11.70;99.90;;;;;;5112792;27;20342;-60
2023/12/29 04:23:09;;;;;;;12.73;12.23;;;11.70;99.90;;;;;;5112813;28;20207;-59
2023/12/29 04:25:35;;;;;;;12.73;12.33;;;11.80;99.90;;;;;;5105179;28;20498;-59
2023/12/29 04:28:02;;;;;;;12.47;12.07;;;11.80;99.90;;;;;;5113512;27;20202;-60
2023/12/29 04:30:29;;;;;;;12.63;12.23;;;11.80;99.90;;;;;;5116338;27;20233;-59
2023/12/29 04:32:57;;;;;;;12.50;12.10;;;11.80;99.90;;;;;;5123298;27;20216;-60
2023/12/29 04:35:23;;;;;;;11.97;11.57;;;11.80;99.90;;;;;;5110617;28;20521;-60
2023/12/29 04:37:50;;;;;;;13.03;12.53;;;11.80;99.90;;;;;;5110164;27;20536;-60
2023/12/29 04:40:19;;;;;;;13.67;13.17;;;11.80;99.90;;;;;;5112622;28;20608;-60
2023/12/29 04:42:46;;;;;;;12.90;12.50;;;11.70;99.90;;;;;;5114105;27;20297;-61
2023/12/29 04:45:12;;;;;;;12.93;12.53;;;11.80;99.90;;;;;;5110107;28;20213;-60
2023/12/29 04:47:39;;;;;;;13.17;12.77;;;11.70;99.90;;;;;;5113558;27;20213;-61
2023/12/29 04:50:07;;;;;;;13.00;12.60;;;11.70;99.90;;;;;;5106466;28;20229;-60
2023/12/29 04:52:34;;;;;;;12.83;12.43;;;11.70;99.90;;;;;;5112958;27;20197;-61
2023/12/29 04:55:01;;;;;;;12.70;12.30;;;11.70;99.90;;;;;;5110831;28;20213;-59
2023/12/29 04:57:29;;;;;;;12.37;11.97;;;11.80;99.90;;;;;;5107408;28;20214;-61
2023/12/29 04:59:56;;;;;;;12.80;12.40;;;11.80;99.90;;;;;;5111191;28;20229;-61
2023/12/29 05:02:23;;;;;;;12.20;11.80;;;11.80;99.90;;;;;;5112126;27;20582;-60
2023/12/29 05:04:49;;;;;;;12.30;11.90;;;11.80;99.90;;;;;;5114004;27;20225;-60
2023/12/29 05:07:16;;;;;;;12.50;12.10;;;11.90;99.90;;;;;;5113398;28;20229;-61
2023/12/29 05:09:43;;;;;;;12.70;12.30;;;11.90;99.90;;;;;;5115155;27;20202;-59
2023/12/29 05:12:09;;;;;;;11.87;11.47;;;11.90;99.90;;;;;;5111136;28;20301;-61
2023/12/29 05:14:37;;;;;;;12.20;11.80;;;11.90;99.90;;;;;;5115588;27;20228;-61
2023/12/29 05:17:04;;;;;;;12.40;12.00;;;11.90;99.90;;;;;;5114766;27;20212;-61
2023/12/29 05:19:31;;;;;;;11.80;11.40;;;11.90;99.90;;;;;;5116674;27;20205;-60
2023/12/29 05:21:57;;;;;;;11.70;11.30;;;11.90;99.90;;;;;;5110212;28;20688;-60
2023/12/29 05:24:24;;;;;;;11.77;11.37;;;12.00;99.90;;;;;;5116183;28;20206;-61
2023/12/29 05:26:51;;;;;;;11.87;11.47;;;11.90;99.90;;;;;;5108929;28;20221;-59
2023/12/29 05:29:17;;;;;;;12.10;11.70;;;12.00;99.90;;;;;;5113180;28;20687;-60
2023/12/29 05:31:45;;;;;;;12.17;11.77;;;12.00;99.90;;;;;;5113609;27;20229;-60
2023/12/29 05:34:12;;;;;;;11.87;11.47;;;12.00;99.90;;;;;;5126046;28;20212;-60
2023/12/29 05:36:39;;;;;;;12.27;11.87;;;12.00;99.90;;;;;;5131009;28;20221;-61
2023/12/29 05:39:07;;;;;;;11.50;11.10;;;12.00;99.90;;;;;;5135741;28;20225;-60
2023/12/29 05:41:33;;;;;;;11.80;11.40;;;12.00;99.90;;;;;;5130737;28;20222;-61
2023/12/29 05:44:01;;;;;;;11.90;11.50;;;12.00;99.90;;;;;;5127576;28;20633;-61
2023/12/29 05:46:27;;;;;;;11.87;11.47;;;12.00;99.90;;;;;;5129384;28;20221;-60
2023/12/29 05:48:56;;;;;;;11.27;10.87;;;12.00;99.90;;;;;;5123656;27;20308;-61
2023/12/29 05:51:23;;;;;;;11.93;11.53;;;12.00;99.90;;;;;;5124864;28;20234;-60
2023/12/29 05:53:50;;;;;;;11.90;11.50;;;12.00;99.90;;;;;;5118229;27;20657;-59
2023/12/29 05:56:17;;;;;;;12.47;12.07;;;12.00;99.90;;;;;;5116325;27;20295;-61
2023/12/29 05:58:44;;;;;;;12.03;11.63;;;12.00;99.90;;;;;;5117476;28;20198;-60
2023/12/29 06:01:11;;;;;;;12.07;11.67;;;12.00;99.90;;;;;;5108866;28;20309;-61
2023/12/29 06:03:38;;;;;;;11.77;11.37;;;12.00;99.90;;;;;;5111804;28;20711;-60
2023/12/29 06:06:07;;;;;;;12.33;11.93;;;12.00;99.90;;;;;;5114753;27;20256;-60
2023/12/29 06:08:34;;;;;;;12.00;11.60;;;12.10;99.90;;;;;;5119845;27;20202;-60
2023/12/29 06:11:00;;;;;;;12.57;12.17;;;12.00;99.90;;;;;;5114308;27;20222;-60
2023/12/29 06:13:28;;;;;;;12.67;12.27;;;11.90;99.90;;;;;;5109315;28;20233;-61
2023/12/29 06:15:55;;;;;;;12.53;12.13;;;12.00;99.90;;;;;;5123565;27;20197;-61
2023/12/29 06:18:22;;;;;;;12.00;11.60;;;11.90;99.90;;;;;;5121261;27;20649;-60
2023/12/29 06:20:49;;;;;;;12.33;11.93;;;11.90;99.90;;;;;;5123977;27;20267;-60
2023/12/29 06:23:18;;;;;;;12.50;12.10;;;11.90;99.90;;;;;;5115847;27;20212;-59
2023/12/29 06:25:44;;;;;;;12.70;12.30;;;11.90;99.90;;;;;;5118993;27;20661;-59
2023/12/29 06:28:11;;;;;;;12.90;12.50;;;11.90;99.90;;;;;;5119967;27;20624;-60
2023/12/29 06:30:38;;;;;;;12.27;11.87;;;11.80;99.90;;;;;;5117901;27;20221;-60
2023/12/29 06:33:05;;;;;;;11.90;11.50;;;11.90;99.90;;;;;;5124272;27;20222;-60
2023/12/29 06:35:32;;;;;;;12.50;12.10;;;11.90;99.90;;;;;;5117850;27;20213;-60
2023/12/29 06:37:59;;;;;;;12.40;12.00;;;11.90;99.90;;;;;;5115902;28;20206;-59
2023/12/29 06:40:27;;;;;;;12.47;12.07;;;11.90;99.90;;;;;;5114400;28;20573;-62
2023/12/29 06:42:54;;;;;;;12.97;12.57;;;11.90;99.90;;;;;;5114007;28;20202;-61
2023/12/29 06:45:21;;;;;;;12.47;12.07;;;11.90;99.90;;;;;;5113089;28;20228;-60
2023/12/29 06:47:47;;;;;;;13.07;12.67;;;11.90;99.90;;;;;;5118248;27;20316;-61
2023/12/29 06:50:14;;;;;;;12.70;12.30;;;11.90;99.90;;;;;;5121202;27;20253;-60
2023/12/29 06:52:41;;;;;;;12.40;12.00;;;11.90;99.90;;;;;;5129169;27;20512;-61
2023/12/29 06:55:09;;;;;;;12.13;11.73;;;11.90;99.90;;;;;;5115947;28;20839;-60
2023/12/29 06:57:37;;;;;;;12.77;12.37;;;11.90;99.90;;;;;;5123183;27;20708;-61
2023/12/29 07:00:05;;;;;;;12.83;12.33;;;11.90;99.90;;;;;;5114736;28;20224;-60
2023/12/29 07:02:31;;;;;;;12.80;12.40;;;11.90;99.90;;;;;;5115806;27;20220;-60
2023/12/29 07:04:58;;;;;;;12.00;11.60;;;11.90;99.90;;;;;;5121378;27;20230;-61
2023/12/29 07:07:25;;;;;;;13.37;12.87;;;11.90;99.90;;;;;;5120510;28;20218;-59
2023/12/29 07:09:52;;;;;;;12.27;11.87;;;11.90;99.90;;;;;;5119077;27;20204;-67
2023/12/29 07:12:19;;;;;;;12.43;12.03;;;11.90;99.90;;;;;;5119113;27;20288;-62
2023/12/29 07:14:47;;;;;;;12.37;11.97;;;11.90;99.90;;;;;;5128167;27;20622;-60
2023/12/29 07:17:14;;;;;;;12.60;12.20;;;11.90;99.90;;;;;;5114925;27;20245;-62
2023/12/29 07:19:41;;;;;;;12.93;12.53;;;11.90;99.90;;;;;;5114718;27;20653;-64
2023/12/29 07:22:08;;;;;;;12.50;12.10;;;12.00;99.90;;;;;;5113223;28;20293;-65
2023/12/29 07:24:36;;;;;;;12.10;11.70;;;12.00;99.90;;;;;;5119942;27;20197;-65
2023/12/29 07:27:05;;;;;;;12.47;12.07;;;12.10;99.90;;;;;;5113561;27;20217;-65
2023/12/29 07:29:32;;;;;;;12.10;11.70;;;12.00;99.90;;;;;;5118802;27;20293;-65
2023/12/29 07:32:00;;;;;;;11.93;11.53;;;12.10;99.90;;;;;;5113658;28;20253;-65
2023/12/29 07:34:27;;;;;;;12.23;11.83;;;12.10;99.90;;;;;;5113927;28;20214;-65
2023/12/29 07:36:54;;;;;;;12.33;11.93;;;12.10;99.90;;;;;;5120135;27;20201;-63
2023/12/29 07:39:21;;;;;;;12.20;11.80;;;12.10;99.90;;;;;;5113544;28;20202;-64
2023/12/29 07:41:48;;;;;;;11.83;11.43;;;12.10;99.90;;;;;;5114437;28;20668;-63
2023/12/29 07:44:15;;;;;;;12.77;12.37;;;12.00;99.90;;;;;;5114551;27;20194;-64
2023/12/29 07:46:42;;;;;;;12.60;12.10;;;12.10;99.90;;;;;;5115463;27;20209;-66
2023/12/29 07:49:10;;;;;;;12.00;11.60;;;12.10;99.90;;;;;;5113903;27;20293;-65
2023/12/29 07:51:40;;;;;;;11.90;11.50;;;12.10;99.90;;;;;;5113170;27;20225;-64
2023/12/29 07:54:07;;;;;;;11.87;11.47;;;12.20;99.90;;;;;;5112925;27;20221;-64
2023/12/29 07:56:34;;;;;;;11.83;11.43;;;12.10;99.90;;;;;;5121774;27;20202;-64
2023/12/29 07:59:01;;;;;;;11.77;11.37;;;12.20;99.90;;;;;;5124820;27;20622;-64
2023/12/29 08:01:27;;;;;;;13.23;12.80;;;12.20;99.90;;;;;;5115249;27;20503;-65
2023/12/29 08:03:54;;;;;;;12.43;12.03;;;12.20;99.90;;;;;;5124379;27;20669;-65
2023/12/29 08:06:22;;;;;;;12.77;12.37;;;12.20;99.90;;;;;;5120902;27;20627;-65
2023/12/29 08:08:49;;;;;;;12.70;12.30;;;12.30;99.90;;;;;;5124799;27;20197;-65
2023/12/29 08:11:17;;;;;;;13.07;12.67;;;12.20;99.90;;;;;;5116989;27;20218;-63
2023/12/29 08:13:45;;;;;;;12.40;12.00;;;12.20;99.90;;;;;;5114306;27;20206;-64
2023/12/29 08:16:12;;;;;;;13.10;12.70;;;12.20;99.90;;;;;;5107621;27;20205;-65
2023/12/29 08:18:38;;;;;;;12.50;12.10;;;12.20;99.90;;;;;;5109466;28;20210;-64
2023/12/29 08:21:05;;;;;;;12.73;12.30;;;12.20;99.90;;;;;;5114322;27;20228;-64
2023/12/29 08:23:33;;;;;;;12.40;12.00;;;12.30;99.90;;;;;;5112662;28;20574;-65
2023/12/29 08:26:00;;;;;;;13.13;12.73;;;12.30;99.90;;;;;;5122992;27;20231;-63
2023/12/29 08:28:27;;;;;;;12.73;12.33;;;12.30;99.90;;;;;;5114523;27;20222;-64
2023/12/29 08:30:54;;;;;;;12.63;12.23;;;12.30;99.90;;;;;;5117405;27;20234;-63
2023/12/29 08:33:20;;;;;;;12.67;12.27;;;12.30;99.90;;;;;;5110970;27;20213;-63
2023/12/29 08:35:47;;;;;;;12.90;12.40;;;12.30;99.90;;;;;;5114375;27;20376;-63
2023/12/29 08:38:14;;;;;;;11.70;11.30;;;12.30;99.90;;;;;;5111484;28;20198;-64
2023/12/29 08:40:42;;;;;;;11.87;11.47;;;12.30;99.90;;;;;;5111415;28;20232;-66
2023/12/29 08:43:09;;;;;;;12.57;12.17;;;12.40;99.90;;;;;;5110139;28;20228;-64
2023/12/29 08:45:38;;;;;;;13.13;12.73;;;12.40;99.90;;;;;;5112262;28;20209;-64
2023/12/29 08:48:05;;;;;;;13.57;13.10;;;12.30;99.90;;;;;;5110202;28;20663;-64
2023/12/29 08:50:32;;;;;;;12.87;12.37;;;12.30;99.90;;;;;;5111594;28;20222;-64
2023/12/29 08:52:59;;;;;;;13.23;12.83;;;12.30;99.90;;;;;;5105045;28;20216;-66
2023/12/29 08:55:25;;;;;;;13.23;12.83;;;12.40;99.90;;;;;;5111848;28;20210;-65
2023/12/29 08:57:54;;;;;;;14.07;13.57;;;12.50;99.90;;;;;;5111272;28;20193;-64
2023/12/29 09:00:21;;;;;;;12.83;12.43;;;12.50;99.90;;;;;;5109990;28;20218;-65
2023/12/29 09:02:48;;;;;;;14.13;13.63;;;12.50;99.90;;;;;;5111762;28;20209;-65
2023/12/29 09:05:15;;;;;;;14.63;14.13;;;12.50;99.90;;;;;;5117134;27;20216;-65
2023/12/29 09:07:42;;;;;;;14.70;14.20;;;12.50;99.90;;;;;;5107943;27;20272;-63
2023/12/29 09:10:11;;;;;;;14.63;14.13;;;12.60;99.90;;;;;;5110902;28;20217;-60
2023/12/29 09:12:38;;;;;;;14.93;14.43;;;12.60;99.90;;;;;;5110071;27;20199;-62
2023/12/29 09:15:07;;;;;;;15.70;15.20;;;12.60;99.90;;;;;;5107246;27;20198;-62
2023/12/29 09:17:34;;;;;;;14.27;13.77;;;12.60;99.90;;;;;;5104635;28;20563;-63
2023/12/29 09:20:01;;;;;;;13.57;13.07;;;12.60;99.90;;;;;;5111234;28;20236;-63
2023/12/29 09:22:27;;;;;;;13.67;13.17;;;12.70;99.90;;;;;;5113008;28;20198;-63
2023/12/29 09:24:55;;;;;;;13.73;13.23;;;12.70;99.90;;;;;;5115842;28;20202;-63
2023/12/29 09:27:21;;;;;;;13.80;13.30;;;12.70;99.90;;;;;;5121742;28;20229;-63
2023/12/29 09:29:48;;;;;;;14.43;13.93;;;12.80;99.90;;;;;;5122683;27;20201;-62
2023/12/29 09:32:16;;;;;;;14.93;14.43;;;12.80;99.90;;;;;;5125495;28;20251;-62
2023/12/29 09:34:43;;;;;;;14.97;14.47;;;12.80;99.90;;;;;;5117739;28;20205;-62
2023/12/29 09:37:10;;;;;;;14.30;13.80;;;12.90;99.90;;;;;;5119961;27;20209;-61
2023/12/29 09:39:36;;;;;;;14.77;14.27;;;12.80;99.90;;;;;;5121925;27;20569;-61
2023/12/29 09:42:06;;;;;;;13.10;12.70;;;12.80;99.90;;;;;;5124406;27;20210;-63
2023/12/29 09:44:36;;;;;;;13.73;13.23;;;12.90;99.90;;;;;;5129705;27;20286;-61
2023/12/29 09:47:04;;;;;;;13.50;13.07;;;12.90;99.90;;;;;;5119617;27;20843;-61
2023/12/29 09:49:39;;;;;;;14.80;14.30;;;12.90;99.90;;;;;;5130056;27;20549;-61
2023/12/29 09:52:07;;;;;;;14.13;13.63;;;12.90;99.90;;;;;;5124158;27;20217;-63
2023/12/29 09:54:35;;;;;;;14.13;13.63;;;13.00;99.90;;;;;;5131706;27;20576;-62
2023/12/29 09:57:04;;;;;;;14.37;13.87;;;13.00;99.90;;;;;;5131489;27;20575;-62
2023/12/29 09:59:33;;;;;;;13.83;13.33;;;13.10;99.90;;;;;;5120887;27;20687;-62
2023/12/29 10:02:02;;;;;;;13.33;12.83;;;13.10;99.90;;;;;;5123987;27;20242;-62
2023/12/29 10:04:29;;;;;;;13.73;13.23;;;13.10;99.90;;;;;;5118908;27;20231;-63
2023/12/29 10:07:03;;;;;;;14.10;13.60;;;13.20;99.90;;;;;;5132206;27;20225;-61
2023/12/29 10:09:31;;;;;;;13.20;12.80;;;13.30;99.90;;;;;;5122154;27;20204;-62
2023/12/29 10:11:59;;;;;;;13.57;13.10;;;13.40;99.90;;;;;;5128642;27;20635;-63
2023/12/29 10:14:31;;;;;;;12.83;12.43;;;13.50;99.90;;;;;;5114712;27;20248;-62
2023/12/29 10:17:07;;;;;;;12.50;12.10;;;13.40;99.90;;;;;;5120708;27;20217;-62
2023/12/29 10:19:40;;;;;;;12.50;12.10;;;13.40;99.90;;;;;;5127506;27;20619;-62
2023/12/29 10:22:16;;;;;;;12.80;12.40;;;13.40;99.90;;;;;;5124990;27;20205;-63
2023/12/29 10:24:45;;;;;;;12.63;12.23;;;13.50;99.90;;;;;;5120294;27;20194;-62
2023/12/29 10:27:13;;;;;;;12.30;11.90;;;13.60;99.90;;;;;;5128748;27;20217;-63
2023/12/29 10:29:39;;;;;;;12.60;12.20;;;13.60;99.90;;;;;;5126349;27;20205;-63
2023/12/29 10:32:07;;;;;;;12.23;11.83;;;13.60;99.90;;;;;;5129616;27;20209;-63
2023/12/29 10:34:33;;;;;;;12.50;12.00;;;13.70;99.90;;;;;;5127903;27;20209;-62
2023/12/29 10:37:04;;;;;;;12.33;11.93;;;13.60;99.90;;;;;;5126194;27;20660;-62
2023/12/29 10:39:32;;;;;;;12.27;11.87;;;13.60;99.90;;;;;;5121655;27;20211;-63
2023/12/29 10:42:07;;;;;;;12.00;11.60;;;13.70;99.90;;;;;;5128593;27;20708;-62
2023/12/29 10:44:34;;;;;;;12.30;11.90;;;13.80;99.90;;;;;;5117183;27;20358;-62
2023/12/29 10:47:08;;;;;;;12.13;11.73;;;13.80;99.90;;;;;;5120990;27;20301;-63
2023/12/29 10:49:35;;;;;;;11.80;11.40;;;13.80;99.90;;;;;;5114682;27;20201;-63
2023/12/29 10:52:12;;;;;;;11.83;11.43;;;13.80;99.90;;;;;;5122782;27;20251;-63
2023/12/29 10:54:40;;;;;;;11.90;11.50;;;13.90;99.90;;;;;;5112034;27;20205;-63
2023/12/29 10:57:08;;;;;;;11.90;11.50;;;13.90;99.90;;;;;;5118050;27;20209;-61
2023/12/29 10:59:35;;;;;;;11.73;11.33;;;13.90;99.90;;;;;;5115397;27;20289;-62
2023/12/29 11:02:03;;;;;;;11.43;11.03;;;14.00;99.90;;;;;;5120517;27;20221;-64
2023/12/29 11:04:29;;;;;;;11.50;11.10;;;14.30;99.90;;;;;;5115673;27;20198;-62
2023/12/29 11:06:56;;;;;;;11.57;11.17;;;14.20;99.90;;;;;;5118874;27;20216;-63
2023/12/29 11:09:29;;;;;;;11.40;11.00;;;14.20;99.90;;;;;;5119903;27;20224;-64
2023/12/29 11:12:00;;;;;;;11.13;10.73;;;14.10;99.90;;;;;;5122904;27;20230;-63
2023/12/29 11:14:28;;;;;;;11.10;10.70;;;14.20;99.90;;;;;;5117144;27;20198;-64
2023/12/29 11:16:55;;;;;;;11.33;10.93;;;14.10;99.90;;;;;;5122328;27;20263;-63
2023/12/29 11:19:22;;;;;;;11.50;11.10;;;14.10;99.90;;;;;;5121471;27;20235;-65
2023/12/29 11:21:52;;;;;;;11.70;11.30;;;14.10;99.90;;;;;;5124466;27;20221;-63
2023/12/29 11:24:18;;;;;;;11.38;10.98;;;14.10;99.90;;;;;;5123150;27;20210;-62
2023/12/29 11:26:45;;;;;;;11.30;10.90;;;14.10;99.90;;;;;;5120159;27;20210;-64
2023/12/29 11:29:14;;;;;;;11.40;11.00;;;14.10;99.90;;;;;;5123519;27;20228;-64
2023/12/29 11:31:41;;;;;;;11.60;11.20;;;14.10;99.90;;;;;;5118095;27;20702;-64
2023/12/29 11:34:17;;;;;;;11.07;10.67;;;14.10;99.90;;;;;;5119718;27;20206;-63
2023/12/29 11:36:47;;;;;;;11.20;10.80;;;14.10;99.90;;;;;;5116670;27;20296;-64
2023/12/29 11:39:21;;;;;;;11.40;11.00;;;14.10;99.90;;;;;;5119551;27;20198;-64
2023/12/29 11:41:54;;;;;;;11.50;11.10;;;14.10;99.90;;;;;;5118982;27;20228;-64
2023/12/29 11:44:27;;;;;;;11.40;11.00;;;14.10;99.90;;;;;;5116925;27;20201;-64
2023/12/29 11:46:54;;;;;;;11.13;10.73;;;14.10;99.90;;;;;;5121105;27;20206;-64
2023/12/29 11:49:21;;;;;;;11.43;11.03;;;14.10;99.90;;;;;;5118685;27;20486;-63
2023/12/29 11:51:49;;;;;;;11.60;11.20;;;14.20;99.90;;;;;;5112556;27;20225;-63
2023/12/29 11:54:24;;;;;;;11.07;10.67;;;14.20;99.90;;;;;;5129361;27;20190;-64
2023/12/29 11:56:51;;;;;;;11.10;10.70;;;14.20;99.90;;;;;;5125215;27;20201;-63
2023/12/29 11:59:19;;;;;;;11.20;10.80;;;14.20;99.90;;;;;;5119905;27;20208;-64
2023/12/29 12:01:50;;;;;;;10.97;10.57;;;14.20;99.90;;;;;;5118983;27;20275;-63
2023/12/29 12:04:36;;;;;;;11.17;10.77;;;14.20;99.90;;;;;;5120270;27;20201;-63
2023/12/29 12:07:05;;;;;;;11.40;11.00;;;14.20;99.90;;;;;;5119594;27;20632;-63
2023/12/29 12:09:32;;;;;;;11.80;11.40;;;14.20;99.90;;;;;;5117444;27;20243;-63
2023/12/29 12:11:59;;;;;;;11.20;10.80;;;14.30;99.90;;;;;;5123702;27;20731;-63
2023/12/29 12:14:46;;;;;;;11.80;11.40;;;14.30;99.90;;;;;;5119386;27;20205;-64
2023/12/29 12:17:28;;;;;;;11.43;11.03;;;14.30;99.90;;;;;;5119960;27;20670;-62
2023/12/29 12:19:58;;;;;;;11.23;10.83;;;14.30;99.90;;;;;;5121594;27;20201;-63
2023/12/29 12:22:25;;;;;;;11.30;10.90;;;14.30;99.90;;;;;;5121233;27;20201;-63
2023/12/29 12:24:58;;;;;;;10.97;10.57;;;14.30;99.90;;;;;;5119874;27;20290;-63
2023/12/29 12:27:26;;;;;;;11.20;10.80;;;14.30;99.90;;;;;;5116571;27;20201;-62
2023/12/29 12:29:56;;;;;;;10.87;10.47;;;14.30;99.90;;;;;;5122024;27;20206;-63
2023/12/29 12:32:25;;;;;;;11.20;10.80;;;14.30;99.90;;;;;;5118420;27;20216;-62